sensor_id;sensor_type;location;lat;lon;timestamp;P1;durP1;ratioP1;P2;durP2;ratioP2
9884;SDS011;4981;50.966;4.842;2024-01-15T00:02:21;25.90;;;15.77;;
9884;SDS011;4981;50.966;4.842;2024-01-15T00:04:48;29.00;;;16.07;;
9884;SDS011;4981;50.966;4.842;2024-01-15T00:07:15;27.13;;;16.47;;
9884;SDS011;4981;50.966;4.842;2024-01-15T00:09:42;29.60;;;14.37;;
9884;SDS011;4981;50.966;4.842;2024-01-15T00:12:09;26.13;;;15.00;;
9884;SDS011;4981;50.966;4.842;2024-01-15T00:14:36;27.40;;;16.43;;
9884;SDS011;4981;50.966;4.842;2024-01-15T00:17:03;26.77;;;15.13;;
9884;SDS011;4981;50.966;4.842;2024-01-15T00:19:31;27.67;;;15.00;;
9884;SDS011;4981;50.966;4.842;2024-01-15T00:21:58;28.17;;;15.30;;
9884;SDS011;4981;50.966;4.842;2024-01-15T00:24:25;27.70;;;15.57;;
9884;SDS011;4981;50.966;4.842;2024-01-15T00:26:52;25.87;;;13.87;;
9884;SDS011;4981;50.966;4.842;2024-01-15T00:29:20;22.20;;;13.80;;
9884;SDS011;4981;50.966;4.842;2024-01-15T00:31:47;26.97;;;15.60;;
9884;SDS011;4981;50.966;4.842;2024-01-15T00:34:14;25.17;;;14.70;;
9884;SDS011;4981;50.966;4.842;2024-01-15T00:36:42;30.20;;;14.63;;
9884;SDS011;4981;50.966;4.842;2024-01-15T00:39:09;27.67;;;14.93;;
9884;SDS011;4981;50.966;4.842;2024-01-15T00:41:36;28.37;;;14.57;;
9884;SDS011;4981;50.966;4.842;2024-01-15T00:44:04;29.20;;;15.97;;
9884;SDS011;4981;50.966;4.842;2024-01-15T00:46:30;25.00;;;14.10;;
9884;SDS011;4981;50.966;4.842;2024-01-15T00:48:57;26.33;;;14.33;;
9884;SDS011;4981;50.966;4.842;2024-01-15T00:51:24;27.90;;;14.83;;
9884;SDS011;4981;50.966;4.842;2024-01-15T00:53:56;27.50;;;13.53;;
9884;SDS011;4981;50.966;4.842;2024-01-15T00:56:23;25.70;;;13.53;;
9884;SDS011;4981;50.966;4.842;2024-01-15T00:58:50;24.13;;;12.63;;
9884;SDS011;4981;50.966;4.842;2024-01-15T01:01:17;26.33;;;14.10;;
9884;SDS011;4981;50.966;4.842;2024-01-15T01:03:43;23.00;;;13.20;;
9884;SDS011;4981;50.966;4.842;2024-01-15T01:06:10;23.27;;;12.70;;
9884;SDS011;4981;50.966;4.842;2024-01-15T01:08:38;27.90;;;13.30;;
9884;SDS011;4981;50.966;4.842;2024-01-15T01:11:06;28.47;;;13.83;;
9884;SDS011;4981;50.966;4.842;2024-01-15T01:13:34;24.33;;;13.17;;
9884;SDS011;4981;50.966;4.842;2024-01-15T01:16:03;24.13;;;13.40;;
9884;SDS011;4981;50.966;4.842;2024-01-15T01:18:30;21.03;;;12.63;;
9884;SDS011;4981;50.966;4.842;2024-01-15T01:20:57;21.90;;;10.90;;
9884;SDS011;4981;50.966;4.842;2024-01-15T01:23:24;23.07;;;12.13;;
9884;SDS011;4981;50.966;4.842;2024-01-15T01:25:51;19.77;;;12.10;;
9884;SDS011;4981;50.966;4.842;2024-01-15T01:28:20;22.60;;;11.87;;
9884;SDS011;4981;50.966;4.842;2024-01-15T01:30:46;22.47;;;13.27;;
9884;SDS011;4981;50.966;4.842;2024-01-15T01:33:13;19.60;;;12.07;;
9884;SDS011;4981;50.966;4.842;2024-01-15T01:35:40;22.67;;;10.00;;
9884;SDS011;4981;50.966;4.842;2024-01-15T01:38:08;19.93;;;9.90;;
9884;SDS011;4981;50.966;4.842;2024-01-15T01:40:35;21.00;;;10.00;;
9884;SDS011;4981;50.966;4.842;2024-01-15T01:43:02;17.37;;;10.43;;
9884;SDS011;4981;50.966;4.842;2024-01-15T01:45:31;17.27;;;11.33;;
9884;SDS011;4981;50.966;4.842;2024-01-15T01:47:58;19.57;;;10.33;;
9884;SDS011;4981;50.966;4.842;2024-01-15T01:50:25;19.20;;;10.57;;
9884;SDS011;4981;50.966;4.842;2024-01-15T01:52:52;16.27;;;10.30;;
9884;SDS011;4981;50.966;4.842;2024-01-15T01:55:19;21.77;;;13.10;;
9884;SDS011;4981;50.966;4.842;2024-01-15T01:57:48;19.50;;;10.93;;
9884;SDS011;4981;50.966;4.842;2024-01-15T02:00:15;25.67;;;13.63;;
9884;SDS011;4981;50.966;4.842;2024-01-15T02:02:44;22.30;;;11.97;;
9884;SDS011;4981;50.966;4.842;2024-01-15T02:05:12;23.07;;;12.03;;
9884;SDS011;4981;50.966;4.842;2024-01-15T02:07:44;21.57;;;10.80;;
9884;SDS011;4981;50.966;4.842;2024-01-15T02:10:11;19.43;;;11.80;;
9884;SDS011;4981;50.966;4.842;2024-01-15T02:12:38;15.80;;;9.43;;
9884;SDS011;4981;50.966;4.842;2024-01-15T02:15:05;15.63;;;9.13;;
9884;SDS011;4981;50.966;4.842;2024-01-15T02:17:32;16.77;;;9.77;;
9884;SDS011;4981;50.966;4.842;2024-01-15T02:20:01;17.63;;;9.27;;
9884;SDS011;4981;50.966;4.842;2024-01-15T02:22:28;15.57;;;9.13;;
9884;SDS011;4981;50.966;4.842;2024-01-15T02:24:56;15.17;;;8.83;;
9884;SDS011;4981;50.966;4.842;2024-01-15T02:27:23;17.03;;;9.70;;
9884;SDS011;4981;50.966;4.842;2024-01-15T02:29:50;18.77;;;9.27;;
9884;SDS011;4981;50.966;4.842;2024-01-15T02:32:18;15.77;;;8.80;;
9884;SDS011;4981;50.966;4.842;2024-01-15T02:34:45;14.77;;;8.73;;
9884;SDS011;4981;50.966;4.842;2024-01-15T02:37:12;16.43;;;9.07;;
9884;SDS011;4981;50.966;4.842;2024-01-15T02:39:41;13.67;;;8.63;;
9884;SDS011;4981;50.966;4.842;2024-01-15T02:42:09;13.53;;;7.50;;
9884;SDS011;4981;50.966;4.842;2024-01-15T02:44:36;13.77;;;8.33;;
9884;SDS011;4981;50.966;4.842;2024-01-15T02:47:03;14.20;;;6.87;;
9884;SDS011;4981;50.966;4.842;2024-01-15T02:49:30;11.23;;;6.60;;
9884;SDS011;4981;50.966;4.842;2024-01-15T02:51:57;10.90;;;6.20;;
9884;SDS011;4981;50.966;4.842;2024-01-15T02:54:24;10.50;;;6.50;;
9884;SDS011;4981;50.966;4.842;2024-01-15T02:56:51;10.13;;;6.00;;
9884;SDS011;4981;50.966;4.842;2024-01-15T02:59:19;8.63;;;5.73;;
9884;SDS011;4981;50.966;4.842;2024-01-15T03:01:46;7.40;;;5.20;;
9884;SDS011;4981;50.966;4.842;2024-01-15T03:04:13;6.93;;;4.90;;
9884;SDS011;4981;50.966;4.842;2024-01-15T03:06:40;9.67;;;4.63;;
9884;SDS011;4981;50.966;4.842;2024-01-15T03:09:07;9.03;;;4.63;;
9884;SDS011;4981;50.966;4.842;2024-01-15T03:11:36;7.17;;;4.00;;
9884;SDS011;4981;50.966;4.842;2024-01-15T03:14:04;4.93;;;4.00;;
9884;SDS011;4981;50.966;4.842;2024-01-15T03:16:32;6.73;;;4.40;;
9884;SDS011;4981;50.966;4.842;2024-01-15T03:18:59;6.60;;;4.00;;
9884;SDS011;4981;50.966;4.842;2024-01-15T03:21:27;9.73;;;4.20;;
9884;SDS011;4981;50.966;4.842;2024-01-15T03:23:54;5.73;;;3.40;;
9884;SDS011;4981;50.966;4.842;2024-01-15T03:26:21;9.67;;;3.70;;
9884;SDS011;4981;50.966;4.842;2024-01-15T03:28:48;5.13;;;3.77;;
9884;SDS011;4981;50.966;4.842;2024-01-15T03:31:15;7.83;;;3.97;;
9884;SDS011;4981;50.966;4.842;2024-01-15T03:33:43;6.37;;;3.83;;
9884;SDS011;4981;50.966;4.842;2024-01-15T03:36:10;10.10;;;3.97;;
9884;SDS011;4981;50.966;4.842;2024-01-15T03:38:39;9.63;;;3.90;;
9884;SDS011;4981;50.966;4.842;2024-01-15T03:41:06;5.40;;;3.63;;
9884;SDS011;4981;50.966;4.842;2024-01-15T03:43:33;8.83;;;4.10;;
9884;SDS011;4981;50.966;4.842;2024-01-15T03:46:00;7.77;;;3.80;;
9884;SDS011;4981;50.966;4.842;2024-01-15T03:48:29;12.10;;;6.23;;
9884;SDS011;4981;50.966;4.842;2024-01-15T03:51:00;9.60;;;5.80;;
9884;SDS011;4981;50.966;4.842;2024-01-15T03:53:27;19.00;;;9.07;;
9884;SDS011;4981;50.966;4.842;2024-01-15T03:55:54;12.40;;;8.07;;
9884;SDS011;4981;50.966;4.842;2024-01-15T03:58:22;7.40;;;5.13;;
9884;SDS011;4981;50.966;4.842;2024-01-15T04:00:49;12.40;;;7.67;;
9884;SDS011;4981;50.966;4.842;2024-01-15T04:03:16;12.20;;;6.33;;
9884;SDS011;4981;50.966;4.842;2024-01-15T04:05:43;35.00;;;15.60;;
9884;SDS011;4981;50.966;4.842;2024-01-15T04:08:11;26.07;;;11.40;;
9884;SDS011;4981;50.966;4.842;2024-01-15T04:10:38;17.77;;;8.60;;
9884;SDS011;4981;50.966;4.842;2024-01-15T04:13:05;15.63;;;8.40;;
9884;SDS011;4981;50.966;4.842;2024-01-15T04:15:32;16.67;;;8.87;;
9884;SDS011;4981;50.966;4.842;2024-01-15T04:18:00;32.27;;;14.40;;
9884;SDS011;4981;50.966;4.842;2024-01-15T04:20:28;32.43;;;14.50;;
9884;SDS011;4981;50.966;4.842;2024-01-15T04:22:55;14.90;;;9.13;;
9884;SDS011;4981;50.966;4.842;2024-01-15T04:25:23;14.13;;;8.33;;
9884;SDS011;4981;50.966;4.842;2024-01-15T04:27:50;18.97;;;8.87;;
9884;SDS011;4981;50.966;4.842;2024-01-15T04:30:17;15.07;;;8.40;;
9884;SDS011;4981;50.966;4.842;2024-01-15T04:32:44;24.57;;;11.73;;
9884;SDS011;4981;50.966;4.842;2024-01-15T04:35:11;16.47;;;10.47;;
9884;SDS011;4981;50.966;4.842;2024-01-15T04:37:39;16.20;;;9.63;;
9884;SDS011;4981;50.966;4.842;2024-01-15T04:40:06;19.40;;;8.87;;
9884;SDS011;4981;50.966;4.842;2024-01-15T04:42:35;17.03;;;9.47;;
9884;SDS011;4981;50.966;4.842;2024-01-15T04:45:02;18.23;;;9.60;;
9884;SDS011;4981;50.966;4.842;2024-01-15T04:47:30;18.33;;;10.50;;
9884;SDS011;4981;50.966;4.842;2024-01-15T04:49:57;19.37;;;10.67;;
9884;SDS011;4981;50.966;4.842;2024-01-15T04:52:24;13.23;;;7.50;;
9884;SDS011;4981;50.966;4.842;2024-01-15T04:54:51;12.33;;;7.87;;
9884;SDS011;4981;50.966;4.842;2024-01-15T04:57:18;15.37;;;8.03;;
9884;SDS011;4981;50.966;4.842;2024-01-15T04:59:46;23.83;;;13.90;;
9884;SDS011;4981;50.966;4.842;2024-01-15T05:02:13;27.40;;;15.17;;
9884;SDS011;4981;50.966;4.842;2024-01-15T05:04:40;28.77;;;15.10;;
9884;SDS011;4981;50.966;4.842;2024-01-15T05:07:07;27.23;;;14.87;;
9884;SDS011;4981;50.966;4.842;2024-01-15T05:09:34;16.73;;;11.03;;
9884;SDS011;4981;50.966;4.842;2024-01-15T05:12:01;24.07;;;12.73;;
9884;SDS011;4981;50.966;4.842;2024-01-15T05:14:28;22.37;;;14.00;;
9884;SDS011;4981;50.966;4.842;2024-01-15T05:16:57;30.10;;;14.67;;
9884;SDS011;4981;50.966;4.842;2024-01-15T05:19:24;25.83;;;14.90;;
9884;SDS011;4981;50.966;4.842;2024-01-15T05:21:50;22.67;;;13.53;;
9884;SDS011;4981;50.966;4.842;2024-01-15T05:24:17;26.93;;;14.03;;
9884;SDS011;4981;50.966;4.842;2024-01-15T05:26:44;27.47;;;13.50;;
9884;SDS011;4981;50.966;4.842;2024-01-15T05:29:12;35.33;;;17.23;;
9884;SDS011;4981;50.966;4.842;2024-01-15T05:31:39;86.13;;;40.70;;
9884;SDS011;4981;50.966;4.842;2024-01-15T05:34:07;43.53;;;24.40;;
9884;SDS011;4981;50.966;4.842;2024-01-15T05:36:34;69.20;;;34.90;;
9884;SDS011;4981;50.966;4.842;2024-01-15T05:39:01;34.03;;;16.10;;
9884;SDS011;4981;50.966;4.842;2024-01-15T05:41:28;65.27;;;40.17;;
9884;SDS011;4981;50.966;4.842;2024-01-15T05:43:55;48.13;;;25.17;;
9884;SDS011;4981;50.966;4.842;2024-01-15T05:46:22;46.00;;;20.43;;
9884;SDS011;4981;50.966;4.842;2024-01-15T05:48:49;51.20;;;22.80;;
9884;SDS011;4981;50.966;4.842;2024-01-15T05:51:17;46.57;;;20.80;;
9884;SDS011;4981;50.966;4.842;2024-01-15T05:53:44;40.43;;;18.77;;
9884;SDS011;4981;50.966;4.842;2024-01-15T05:56:11;31.63;;;15.07;;
9884;SDS011;4981;50.966;4.842;2024-01-15T05:58:38;34.60;;;16.10;;
9884;SDS011;4981;50.966;4.842;2024-01-15T06:01:07;61.10;;;25.93;;
9884;SDS011;4981;50.966;4.842;2024-01-15T06:03:34;47.40;;;29.10;;
9884;SDS011;4981;50.966;4.842;2024-01-15T06:06:01;64.60;;;34.97;;
9884;SDS011;4981;50.966;4.842;2024-01-15T06:08:30;113.93;;;69.57;;
9884;SDS011;4981;50.966;4.842;2024-01-15T06:10:57;95.10;;;69.53;;
9884;SDS011;4981;50.966;4.842;2024-01-15T06:13:24;45.63;;;22.73;;
9884;SDS011;4981;50.966;4.842;2024-01-15T06:15:51;53.63;;;29.73;;
9884;SDS011;4981;50.966;4.842;2024-01-15T06:18:18;31.23;;;15.03;;
9884;SDS011;4981;50.966;4.842;2024-01-15T06:20:44;31.70;;;15.40;;
9884;SDS011;4981;50.966;4.842;2024-01-15T06:23:11;23.77;;;11.40;;
9884;SDS011;4981;50.966;4.842;2024-01-15T06:25:40;20.07;;;10.37;;
9884;SDS011;4981;50.966;4.842;2024-01-15T06:28:07;22.83;;;13.03;;
9884;SDS011;4981;50.966;4.842;2024-01-15T06:30:34;21.03;;;8.87;;
9884;SDS011;4981;50.966;4.842;2024-01-15T06:33:01;11.90;;;6.20;;
9884;SDS011;4981;50.966;4.842;2024-01-15T06:35:28;12.80;;;8.60;;
9884;SDS011;4981;50.966;4.842;2024-01-15T06:37:55;11.77;;;7.20;;
9884;SDS011;4981;50.966;4.842;2024-01-15T06:40:22;13.03;;;6.60;;
9884;SDS011;4981;50.966;4.842;2024-01-15T06:42:54;14.07;;;7.33;;
9884;SDS011;4981;50.966;4.842;2024-01-15T06:45:21;18.47;;;9.27;;
9884;SDS011;4981;50.966;4.842;2024-01-15T06:47:48;13.90;;;8.10;;
9884;SDS011;4981;50.966;4.842;2024-01-15T06:50:15;28.60;;;13.03;;
9884;SDS011;4981;50.966;4.842;2024-01-15T06:52:42;18.30;;;10.60;;
9884;SDS011;4981;50.966;4.842;2024-01-15T06:55:09;16.20;;;7.40;;
9884;SDS011;4981;50.966;4.842;2024-01-15T06:57:36;28.03;;;14.13;;
9884;SDS011;4981;50.966;4.842;2024-01-15T07:00:05;17.03;;;7.40;;
9884;SDS011;4981;50.966;4.842;2024-01-15T07:02:34;44.57;;;31.73;;
9884;SDS011;4981;50.966;4.842;2024-01-15T07:05:01;47.97;;;24.20;;
9884;SDS011;4981;50.966;4.842;2024-01-15T07:07:30;20.00;;;8.77;;
9884;SDS011;4981;50.966;4.842;2024-01-15T07:09:57;11.37;;;5.53;;
9884;SDS011;4981;50.966;4.842;2024-01-15T07:12:24;15.67;;;8.37;;
9884;SDS011;4981;50.966;4.842;2024-01-15T07:14:51;27.60;;;18.43;;
9884;SDS011;4981;50.966;4.842;2024-01-15T07:17:19;14.83;;;7.17;;
9884;SDS011;4981;50.966;4.842;2024-01-15T07:19:46;46.30;;;18.83;;
9884;SDS011;4981;50.966;4.842;2024-01-15T07:22:13;41.97;;;23.30;;
9884;SDS011;4981;50.966;4.842;2024-01-15T07:24:40;58.73;;;52.27;;
9884;SDS011;4981;50.966;4.842;2024-01-15T07:27:07;38.83;;;19.57;;
9884;SDS011;4981;50.966;4.842;2024-01-15T07:29:34;24.47;;;8.43;;
9884;SDS011;4981;50.966;4.842;2024-01-15T07:32:02;13.43;;;6.17;;
9884;SDS011;4981;50.966;4.842;2024-01-15T07:34:31;16.93;;;6.27;;
9884;SDS011;4981;50.966;4.842;2024-01-15T07:36:58;21.37;;;8.80;;
9884;SDS011;4981;50.966;4.842;2024-01-15T07:39:25;19.97;;;8.07;;
9884;SDS011;4981;50.966;4.842;2024-01-15T07:41:53;16.07;;;6.97;;
9884;SDS011;4981;50.966;4.842;2024-01-15T07:44:21;18.93;;;7.40;;
9884;SDS011;4981;50.966;4.842;2024-01-15T07:46:47;69.43;;;32.17;;
9884;SDS011;4981;50.966;4.842;2024-01-15T07:49:14;27.70;;;10.90;;
9884;SDS011;4981;50.966;4.842;2024-01-15T07:51:43;34.70;;;14.77;;
9884;SDS011;4981;50.966;4.842;2024-01-15T07:54:10;43.03;;;20.97;;
9884;SDS011;4981;50.966;4.842;2024-01-15T07:56:52;50.57;;;19.67;;
9884;SDS011;4981;50.966;4.842;2024-01-15T07:59:20;28.23;;;9.83;;
9884;SDS011;4981;50.966;4.842;2024-01-15T08:01:47;25.83;;;12.20;;
9884;SDS011;4981;50.966;4.842;2024-01-15T08:04:14;33.07;;;13.53;;
9884;SDS011;4981;50.966;4.842;2024-01-15T08:06:43;21.33;;;8.47;;
9884;SDS011;4981;50.966;4.842;2024-01-15T08:09:10;46.40;;;16.67;;
9884;SDS011;4981;50.966;4.842;2024-01-15T08:11:39;18.43;;;5.83;;
9884;SDS011;4981;50.966;4.842;2024-01-15T08:14:07;9.73;;;4.10;;
9884;SDS011;4981;50.966;4.842;2024-01-15T08:16:34;10.37;;;4.83;;
9884;SDS011;4981;50.966;4.842;2024-01-15T08:19:02;5.53;;;2.07;;
9884;SDS011;4981;50.966;4.842;2024-01-15T08:21:29;8.30;;;2.53;;
9884;SDS011;4981;50.966;4.842;2024-01-15T08:23:58;8.23;;;2.20;;
9884;SDS011;4981;50.966;4.842;2024-01-15T08:26:26;10.23;;;2.23;;
9884;SDS011;4981;50.966;4.842;2024-01-15T08:28:53;6.07;;;1.87;;
9884;SDS011;4981;50.966;4.842;2024-01-15T08:31:20;14.67;;;2.30;;
9884;SDS011;4981;50.966;4.842;2024-01-15T08:33:47;8.73;;;2.00;;
9884;SDS011;4981;50.966;4.842;2024-01-15T08:36:14;10.47;;;2.60;;
9884;SDS011;4981;50.966;4.842;2024-01-15T08:38:41;9.03;;;2.93;;
9884;SDS011;4981;50.966;4.842;2024-01-15T08:41:12;14.03;;;5.13;;
9884;SDS011;4981;50.966;4.842;2024-01-15T08:43:40;7.20;;;2.67;;
9884;SDS011;4981;50.966;4.842;2024-01-15T08:46:07;10.10;;;3.70;;
9884;SDS011;4981;50.966;4.842;2024-01-15T08:48:34;5.37;;;1.97;;
9884;SDS011;4981;50.966;4.842;2024-01-15T08:51:01;7.20;;;2.27;;
9884;SDS011;4981;50.966;4.842;2024-01-15T08:53:29;6.30;;;3.10;;
9884;SDS011;4981;50.966;4.842;2024-01-15T08:55:56;11.67;;;2.40;;
9884;SDS011;4981;50.966;4.842;2024-01-15T08:58:24;5.77;;;2.67;;
9884;SDS011;4981;50.966;4.842;2024-01-15T09:00:51;7.93;;;2.23;;
9884;SDS011;4981;50.966;4.842;2024-01-15T09:03:18;10.70;;;2.53;;
9884;SDS011;4981;50.966;4.842;2024-01-15T09:05:45;10.03;;;5.77;;
9884;SDS011;4981;50.966;4.842;2024-01-15T09:08:13;12.43;;;7.17;;
9884;SDS011;4981;50.966;4.842;2024-01-15T09:10:40;9.30;;;2.87;;
9884;SDS011;4981;50.966;4.842;2024-01-15T09:13:07;7.30;;;1.93;;
9884;SDS011;4981;50.966;4.842;2024-01-15T09:15:36;10.57;;;2.03;;
9884;SDS011;4981;50.966;4.842;2024-01-15T09:18:03;8.20;;;2.30;;
9884;SDS011;4981;50.966;4.842;2024-01-15T09:20:30;5.80;;;2.27;;
9884;SDS011;4981;50.966;4.842;2024-01-15T09:22:57;7.60;;;2.07;;
9884;SDS011;4981;50.966;4.842;2024-01-15T09:25:24;5.43;;;2.10;;
9884;SDS011;4981;50.966;4.842;2024-01-15T09:27:51;13.47;;;2.20;;
9884;SDS011;4981;50.966;4.842;2024-01-15T09:30:18;11.77;;;3.57;;
9884;SDS011;4981;50.966;4.842;2024-01-15T09:32:47;12.43;;;3.37;;
9884;SDS011;4981;50.966;4.842;2024-01-15T09:35:14;12.10;;;4.50;;
9884;SDS011;4981;50.966;4.842;2024-01-15T09:37:41;8.73;;;2.27;;
9884;SDS011;4981;50.966;4.842;2024-01-15T09:40:08;6.73;;;2.10;;
9884;SDS011;4981;50.966;4.842;2024-01-15T09:42:41;6.07;;;3.03;;
9884;SDS011;4981;50.966;4.842;2024-01-15T09:45:08;11.43;;;2.53;;
9884;SDS011;4981;50.966;4.842;2024-01-15T09:47:36;11.63;;;3.40;;
9884;SDS011;4981;50.966;4.842;2024-01-15T09:50:05;13.40;;;5.83;;
9884;SDS011;4981;50.966;4.842;2024-01-15T09:52:32;3.93;;;2.07;;
9884;SDS011;4981;50.966;4.842;2024-01-15T09:55:01;8.60;;;2.37;;
9884;SDS011;4981;50.966;4.842;2024-01-15T09:57:30;7.30;;;2.93;;
9884;SDS011;4981;50.966;4.842;2024-01-15T09:59:57;21.17;;;4.00;;
9884;SDS011;4981;50.966;4.842;2024-01-15T10:02:29;8.70;;;2.70;;
9884;SDS011;4981;50.966;4.842;2024-01-15T10:04:56;8.53;;;3.00;;
9884;SDS011;4981;50.966;4.842;2024-01-15T10:07:25;11.20;;;3.77;;
9884;SDS011;4981;50.966;4.842;2024-01-15T10:09:53;10.97;;;3.80;;
9884;SDS011;4981;50.966;4.842;2024-01-15T10:12:20;12.73;;;4.17;;
9884;SDS011;4981;50.966;4.842;2024-01-15T10:14:48;13.17;;;3.53;;
9884;SDS011;4981;50.966;4.842;2024-01-15T10:17:16;10.40;;;2.90;;
9884;SDS011;4981;50.966;4.842;2024-01-15T10:19:44;10.03;;;2.57;;
9884;SDS011;4981;50.966;4.842;2024-01-15T10:22:13;10.30;;;2.10;;
9884;SDS011;4981;50.966;4.842;2024-01-15T10:24:42;7.77;;;2.70;;
9884;SDS011;4981;50.966;4.842;2024-01-15T10:27:09;7.00;;;2.20;;
9884;SDS011;4981;50.966;4.842;2024-01-15T10:29:37;7.93;;;2.80;;
9884;SDS011;4981;50.966;4.842;2024-01-15T10:32:06;9.33;;;2.60;;
9884;SDS011;4981;50.966;4.842;2024-01-15T10:34:34;6.77;;;1.73;;
9884;SDS011;4981;50.966;4.842;2024-01-15T10:37:04;12.17;;;2.70;;
9884;SDS011;4981;50.966;4.842;2024-01-15T10:39:34;9.00;;;3.03;;
9884;SDS011;4981;50.966;4.842;2024-01-15T10:42:03;9.00;;;2.33;;
9884;SDS011;4981;50.966;4.842;2024-01-15T10:44:30;11.63;;;4.27;;
9884;SDS011;4981;50.966;4.842;2024-01-15T10:46:57;13.13;;;5.93;;
9884;SDS011;4981;50.966;4.842;2024-01-15T10:49:24;17.63;;;7.27;;
9884;SDS011;4981;50.966;4.842;2024-01-15T10:51:53;9.97;;;2.30;;
9884;SDS011;4981;50.966;4.842;2024-01-15T10:54:20;8.23;;;1.90;;
9884;SDS011;4981;50.966;4.842;2024-01-15T10:56:49;18.47;;;7.13;;
9884;SDS011;4981;50.966;4.842;2024-01-15T10:59:19;13.07;;;3.30;;
9884;SDS011;4981;50.966;4.842;2024-01-15T11:01:47;11.77;;;5.03;;
9884;SDS011;4981;50.966;4.842;2024-01-15T11:04:15;17.17;;;7.40;;
9884;SDS011;4981;50.966;4.842;2024-01-15T11:06:44;8.93;;;2.73;;
9884;SDS011;4981;50.966;4.842;2024-01-15T11:09:12;13.67;;;1.87;;
9884;SDS011;4981;50.966;4.842;2024-01-15T11:11:40;16.20;;;3.93;;
9884;SDS011;4981;50.966;4.842;2024-01-15T11:14:08;12.10;;;2.97;;
9884;SDS011;4981;50.966;4.842;2024-01-15T11:19:24;9.47;;;2.47;;
9884;SDS011;4981;50.966;4.842;2024-01-15T11:21:51;8.40;;;2.37;;
9884;SDS011;4981;50.966;4.842;2024-01-15T11:24:38;9.43;;;1.90;;
9884;SDS011;4981;50.966;4.842;2024-01-15T11:27:06;19.80;;;8.80;;
9884;SDS011;4981;50.966;4.842;2024-01-15T11:29:34;11.83;;;4.27;;
9884;SDS011;4981;50.966;4.842;2024-01-15T11:32:04;18.37;;;7.63;;
9884;SDS011;4981;50.966;4.842;2024-01-15T11:34:51;18.87;;;6.47;;
9884;SDS011;4981;50.966;4.842;2024-01-15T11:37:23;32.20;;;16.30;;
9884;SDS011;4981;50.966;4.842;2024-01-15T11:39:52;9.40;;;4.07;;
9884;SDS011;4981;50.966;4.842;2024-01-15T11:42:20;16.13;;;6.80;;
9884;SDS011;4981;50.966;4.842;2024-01-15T11:44:48;21.67;;;10.27;;
9884;SDS011;4981;50.966;4.842;2024-01-15T11:47:19;19.27;;;8.60;;
9884;SDS011;4981;50.966;4.842;2024-01-15T11:50:18;35.93;;;18.97;;
9884;SDS011;4981;50.966;4.842;2024-01-15T11:52:49;13.03;;;5.83;;
9884;SDS011;4981;50.966;4.842;2024-01-15T11:55:25;22.67;;;11.47;;
9884;SDS011;4981;50.966;4.842;2024-01-15T11:57:54;11.07;;;4.03;;
9884;SDS011;4981;50.966;4.842;2024-01-15T12:00:23;12.90;;;4.77;;
9884;SDS011;4981;50.966;4.842;2024-01-15T12:02:52;10.57;;;3.97;;
9884;SDS011;4981;50.966;4.842;2024-01-15T12:05:19;6.20;;;1.40;;
9884;SDS011;4981;50.966;4.842;2024-01-15T12:07:47;66.53;;;3.90;;
9884;SDS011;4981;50.966;4.842;2024-01-15T12:10:16;6.80;;;1.93;;
9884;SDS011;4981;50.966;4.842;2024-01-15T12:12:47;8.40;;;1.80;;
9884;SDS011;4981;50.966;4.842;2024-01-15T12:15:21;10.67;;;1.90;;
9884;SDS011;4981;50.966;4.842;2024-01-15T12:17:47;11.33;;;2.33;;
9884;SDS011;4981;50.966;4.842;2024-01-15T12:20:16;11.90;;;3.33;;
9884;SDS011;4981;50.966;4.842;2024-01-15T12:22:44;9.87;;;2.40;;
9884;SDS011;4981;50.966;4.842;2024-01-15T12:25:11;9.03;;;2.87;;
9884;SDS011;4981;50.966;4.842;2024-01-15T12:27:38;17.43;;;5.07;;
9884;SDS011;4981;50.966;4.842;2024-01-15T12:30:06;15.60;;;4.97;;
9884;SDS011;4981;50.966;4.842;2024-01-15T12:32:36;29.23;;;12.47;;
9884;SDS011;4981;50.966;4.842;2024-01-15T12:35:03;120.67;;;51.17;;
9884;SDS011;4981;50.966;4.842;2024-01-15T12:37:34;13.37;;;5.23;;
9884;SDS011;4981;50.966;4.842;2024-01-15T12:40:01;9.80;;;4.17;;
9884;SDS011;4981;50.966;4.842;2024-01-15T12:42:29;5.73;;;1.43;;
9884;SDS011;4981;50.966;4.842;2024-01-15T12:44:56;4.43;;;1.10;;
9884;SDS011;4981;50.966;4.842;2024-01-15T12:47:23;7.07;;;1.37;;
9884;SDS011;4981;50.966;4.842;2024-01-15T12:49:51;6.63;;;2.97;;
9884;SDS011;4981;50.966;4.842;2024-01-15T12:52:20;15.07;;;5.70;;
9884;SDS011;4981;50.966;4.842;2024-01-15T12:54:49;21.07;;;9.57;;
9884;SDS011;4981;50.966;4.842;2024-01-15T12:57:16;28.50;;;15.30;;
9884;SDS011;4981;50.966;4.842;2024-01-15T12:59:43;6.00;;;1.70;;
9884;SDS011;4981;50.966;4.842;2024-01-15T13:02:11;15.93;;;3.27;;
9884;SDS011;4981;50.966;4.842;2024-01-15T13:04:38;30.30;;;3.23;;
9884;SDS011;4981;50.966;4.842;2024-01-15T13:07:06;30.77;;;2.73;;
9884;SDS011;4981;50.966;4.842;2024-01-15T13:09:33;17.03;;;1.80;;
9884;SDS011;4981;50.966;4.842;2024-01-15T13:12:02;16.80;;;4.30;;
9884;SDS011;4981;50.966;4.842;2024-01-15T13:14:30;15.63;;;6.10;;
9884;SDS011;4981;50.966;4.842;2024-01-15T13:16:58;19.33;;;7.73;;
9884;SDS011;4981;50.966;4.842;2024-01-15T13:19:25;6.30;;;2.20;;
9884;SDS011;4981;50.966;4.842;2024-01-15T13:21:52;19.40;;;2.50;;
9884;SDS011;4981;50.966;4.842;2024-01-15T13:24:20;7.73;;;2.80;;
9884;SDS011;4981;50.966;4.842;2024-01-15T13:26:47;12.00;;;2.70;;
9884;SDS011;4981;50.966;4.842;2024-01-15T13:29:15;4.60;;;1.57;;
9884;SDS011;4981;50.966;4.842;2024-01-15T13:31:43;2.50;;;1.60;;
9884;SDS011;4981;50.966;4.842;2024-01-15T13:34:11;2.40;;;1.60;;
9884;SDS011;4981;50.966;4.842;2024-01-15T13:36:39;6.57;;;2.10;;
9884;SDS011;4981;50.966;4.842;2024-01-15T13:39:06;3.47;;;2.57;;
9884;SDS011;4981;50.966;4.842;2024-01-15T13:41:35;5.53;;;3.37;;
9884;SDS011;4981;50.966;4.842;2024-01-15T13:44:02;2.90;;;2.40;;
9884;SDS011;4981;50.966;4.842;2024-01-15T13:46:30;5.30;;;2.00;;
9884;SDS011;4981;50.966;4.842;2024-01-15T13:48:58;7.67;;;2.33;;
9884;SDS011;4981;50.966;4.842;2024-01-15T13:51:27;6.07;;;1.77;;
9884;SDS011;4981;50.966;4.842;2024-01-15T13:53:55;4.03;;;1.83;;
9884;SDS011;4981;50.966;4.842;2024-01-15T13:56:22;4.07;;;1.40;;
9884;SDS011;4981;50.966;4.842;2024-01-15T13:58:49;3.67;;;1.10;;
9884;SDS011;4981;50.966;4.842;2024-01-15T14:01:17;10.17;;;5.63;;
9884;SDS011;4981;50.966;4.842;2024-01-15T14:03:45;3.67;;;1.10;;
9884;SDS011;4981;50.966;4.842;2024-01-15T14:06:12;3.27;;;1.07;;
9884;SDS011;4981;50.966;4.842;2024-01-15T14:08:39;2.67;;;1.10;;
9884;SDS011;4981;50.966;4.842;2024-01-15T14:11:06;4.67;;;1.50;;
9884;SDS011;4981;50.966;4.842;2024-01-15T14:13:33;3.00;;;1.30;;
9884;SDS011;4981;50.966;4.842;2024-01-15T14:16:00;2.67;;;1.83;;
9884;SDS011;4981;50.966;4.842;2024-01-15T14:18:27;2.37;;;1.10;;
9884;SDS011;4981;50.966;4.842;2024-01-15T14:20:55;3.73;;;1.40;;
9884;SDS011;4981;50.966;4.842;2024-01-15T14:23:22;3.13;;;1.10;;
9884;SDS011;4981;50.966;4.842;2024-01-15T14:25:49;1.77;;;0.93;;
9884;SDS011;4981;50.966;4.842;2024-01-15T14:28:16;4.53;;;1.10;;
9884;SDS011;4981;50.966;4.842;2024-01-15T14:30:43;6.33;;;1.40;;
9884;SDS011;4981;50.966;4.842;2024-01-15T14:33:10;5.13;;;1.63;;
9884;SDS011;4981;50.966;4.842;2024-01-15T14:35:37;4.00;;;1.17;;
9884;SDS011;4981;50.966;4.842;2024-01-15T14:38:07;6.10;;;1.60;;
9884;SDS011;4981;50.966;4.842;2024-01-15T14:40:34;8.77;;;1.50;;
9884;SDS011;4981;50.966;4.842;2024-01-15T14:43:02;3.17;;;1.23;;
9884;SDS011;4981;50.966;4.842;2024-01-15T14:45:29;5.90;;;1.30;;
9884;SDS011;4981;50.966;4.842;2024-01-15T14:47:56;7.23;;;1.60;;
9884;SDS011;4981;50.966;4.842;2024-01-15T14:50:23;4.60;;;1.90;;
9884;SDS011;4981;50.966;4.842;2024-01-15T14:52:51;4.63;;;1.30;;
9884;SDS011;4981;50.966;4.842;2024-01-15T14:55:20;3.03;;;1.33;;
9884;SDS011;4981;50.966;4.842;2024-01-15T14:57:48;5.90;;;1.70;;
9884;SDS011;4981;50.966;4.842;2024-01-15T15:00:15;2.13;;;1.10;;
9884;SDS011;4981;50.966;4.842;2024-01-15T15:02:43;4.57;;;1.40;;
9884;SDS011;4981;50.966;4.842;2024-01-15T15:05:10;1.93;;;1.30;;
9884;SDS011;4981;50.966;4.842;2024-01-15T15:07:38;3.97;;;1.40;;